sensor_id;sensor_type;location;lat;lon;timestamp;P1;durP1;ratioP1;P2;durP2;ratioP2
18612;SDS011;9436;52.152;21.032;2022-09-12T00:01:58;3.57;;;3.20;;
18612;SDS011;9436;52.152;21.032;2022-09-12T00:04:25;3.23;;;2.93;;
18612;SDS011;9436;52.152;21.032;2022-09-12T00:06:52;4.63;;;3.47;;
18612;SDS011;9436;52.152;21.032;2022-09-12T00:09:19;4.40;;;3.30;;
18612;SDS011;9436;52.152;21.032;2022-09-12T00:11:47;6.10;;;3.60;;
18612;SDS011;9436;52.152;21.032;2022-09-12T00:14:15;5.63;;;3.27;;
18612;SDS011;9436;52.152;21.032;2022-09-12T00:16:43;4.63;;;3.60;;
18612;SDS011;9436;52.152;21.032;2022-09-12T00:19:10;3.77;;;3.03;;
18612;SDS011;9436;52.152;21.032;2022-09-12T00:21:38;4.57;;;3.17;;
18612;SDS011;9436;52.152;21.032;2022-09-12T00:24:05;5.80;;;3.63;;
18612;SDS011;9436;52.152;21.032;2022-09-12T00:26:33;4.33;;;3.40;;
18612;SDS011;9436;52.152;21.032;2022-09-12T00:29:01;6.37;;;3.13;;
18612;SDS011;9436;52.152;21.032;2022-09-12T00:31:29;4.33;;;3.20;;
18612;SDS011;9436;52.152;21.032;2022-09-12T00:33:56;3.53;;;3.13;;
18612;SDS011;9436;52.152;21.032;2022-09-12T00:36:25;4.30;;;3.37;;
18612;SDS011;9436;52.152;21.032;2022-09-12T00:38:54;5.97;;;3.43;;
18612;SDS011;9436;52.152;21.032;2022-09-12T00:41:21;3.30;;;3.00;;
18612;SDS011;9436;52.152;21.032;2022-09-12T00:43:50;5.97;;;3.17;;
18612;SDS011;9436;52.152;21.032;2022-09-12T00:46:26;4.50;;;3.40;;
18612;SDS011;9436;52.152;21.032;2022-09-12T00:48:59;3.17;;;2.87;;
18612;SDS011;9436;52.152;21.032;2022-09-12T00:51:29;3.60;;;3.20;;
18612;SDS011;9436;52.152;21.032;2022-09-12T00:53:59;5.83;;;3.33;;
18612;SDS011;9436;52.152;21.032;2022-09-12T00:56:31;4.97;;;3.30;;
18612;SDS011;9436;52.152;21.032;2022-09-12T00:58:59;4.70;;;3.40;;
18612;SDS011;9436;52.152;21.032;2022-09-12T01:01:30;3.80;;;2.90;;
18612;SDS011;9436;52.152;21.032;2022-09-12T01:03:57;3.83;;;3.20;;
18612;SDS011;9436;52.152;21.032;2022-09-12T01:06:25;5.20;;;3.40;;
18612;SDS011;9436;52.152;21.032;2022-09-12T01:08:53;3.73;;;3.13;;
18612;SDS011;9436;52.152;21.032;2022-09-12T01:11:21;8.73;;;3.23;;
18612;SDS011;9436;52.152;21.032;2022-09-12T01:13:48;5.67;;;3.60;;
18612;SDS011;9436;52.152;21.032;2022-09-12T01:16:16;8.43;;;3.20;;
18612;SDS011;9436;52.152;21.032;2022-09-12T01:18:48;4.23;;;3.33;;
18612;SDS011;9436;52.152;21.032;2022-09-12T01:21:28;3.97;;;3.20;;
18612;SDS011;9436;52.152;21.032;2022-09-12T01:24:18;4.97;;;3.23;;
18612;SDS011;9436;52.152;21.032;2022-09-12T01:30:14;4.57;;;3.20;;
18612;SDS011;9436;52.152;21.032;2022-09-12T01:32:50;7.40;;;3.33;;
18612;SDS011;9436;52.152;21.032;2022-09-12T01:35:26;3.33;;;2.93;;
18612;SDS011;9436;52.152;21.032;2022-09-12T01:38:00;4.13;;;2.90;;
18612;SDS011;9436;52.152;21.032;2022-09-12T01:40:37;6.17;;;3.10;;
18612;SDS011;9436;52.152;21.032;2022-09-12T01:43:12;4.77;;;3.20;;
18612;SDS011;9436;52.152;21.032;2022-09-12T01:45:48;3.87;;;3.13;;
18612;SDS011;9436;52.152;21.032;2022-09-12T01:48:25;3.83;;;3.03;;
18612;SDS011;9436;52.152;21.032;2022-09-12T01:50:56;4.60;;;3.40;;
18612;SDS011;9436;52.152;21.032;2022-09-12T01:53:30;3.47;;;3.17;;
18612;SDS011;9436;52.152;21.032;2022-09-12T01:56:02;4.47;;;3.17;;
18612;SDS011;9436;52.152;21.032;2022-09-12T01:58:34;4.80;;;3.30;;
18612;SDS011;9436;52.152;21.032;2022-09-12T02:01:11;4.70;;;3.10;;
18612;SDS011;9436;52.152;21.032;2022-09-12T02:03:42;3.93;;;3.37;;
18612;SDS011;9436;52.152;21.032;2022-09-12T02:06:14;5.10;;;3.30;;
18612;SDS011;9436;52.152;21.032;2022-09-12T02:08:46;4.63;;;3.20;;
18612;SDS011;9436;52.152;21.032;2022-09-12T02:11:15;4.83;;;3.00;;
18612;SDS011;9436;52.152;21.032;2022-09-12T02:13:45;3.40;;;3.10;;
18612;SDS011;9436;52.152;21.032;2022-09-12T02:16:19;4.83;;;3.23;;
18612;SDS011;9436;52.152;21.032;2022-09-12T02:18:51;5.87;;;3.27;;
18612;SDS011;9436;52.152;21.032;2022-09-12T02:21:21;4.47;;;3.33;;
18612;SDS011;9436;52.152;21.032;2022-09-12T02:23:52;5.43;;;3.57;;
18612;SDS011;9436;52.152;21.032;2022-09-12T02:26:22;4.80;;;3.20;;
18612;SDS011;9436;52.152;21.032;2022-09-12T02:28:55;4.50;;;3.40;;
18612;SDS011;9436;52.152;21.032;2022-09-12T02:31:24;3.80;;;3.30;;
18612;SDS011;9436;52.152;21.032;2022-09-12T02:33:59;6.27;;;3.40;;
18612;SDS011;9436;52.152;21.032;2022-09-12T02:36:36;4.60;;;3.30;;
18612;SDS011;9436;52.152;21.032;2022-09-12T02:39:11;7.13;;;3.40;;
18612;SDS011;9436;52.152;21.032;2022-09-12T02:41:43;4.27;;;3.63;;
18612;SDS011;9436;52.152;21.032;2022-09-12T02:44:10;5.23;;;3.80;;
18612;SDS011;9436;52.152;21.032;2022-09-12T02:46:40;4.63;;;3.10;;
18612;SDS011;9436;52.152;21.032;2022-09-12T02:49:09;4.93;;;3.40;;
18612;SDS011;9436;52.152;21.032;2022-09-12T02:51:36;5.47;;;3.67;;
18612;SDS011;9436;52.152;21.032;2022-09-12T02:54:03;4.10;;;3.27;;
18612;SDS011;9436;52.152;21.032;2022-09-12T02:56:32;5.67;;;3.40;;
18612;SDS011;9436;52.152;21.032;2022-09-12T02:58:59;4.23;;;3.53;;
18612;SDS011;9436;52.152;21.032;2022-09-12T03:01:35;6.77;;;3.63;;
18612;SDS011;9436;52.152;21.032;2022-09-12T03:04:20;4.33;;;3.50;;
18612;SDS011;9436;52.152;21.032;2022-09-12T03:07:00;5.80;;;3.70;;
18612;SDS011;9436;52.152;21.032;2022-09-12T03:09:37;4.23;;;3.60;;
18612;SDS011;9436;52.152;21.032;2022-09-12T03:12:14;4.80;;;3.60;;
18612;SDS011;9436;52.152;21.032;2022-09-12T03:14:57;5.93;;;3.90;;
18612;SDS011;9436;52.152;21.032;2022-09-12T03:17:44;6.03;;;3.90;;
18612;SDS011;9436;52.152;21.032;2022-09-12T03:20:21;6.63;;;4.30;;
18612;SDS011;9436;52.152;21.032;2022-09-12T03:23:00;6.97;;;3.67;;
18612;SDS011;9436;52.152;21.032;2022-09-12T03:25:31;4.77;;;3.67;;
18612;SDS011;9436;52.152;21.032;2022-09-12T03:28:02;5.07;;;3.97;;
18612;SDS011;9436;52.152;21.032;2022-09-12T03:30:36;4.50;;;3.90;;
18612;SDS011;9436;52.152;21.032;2022-09-12T03:33:05;6.57;;;3.50;;
18612;SDS011;9436;52.152;21.032;2022-09-12T03:35:32;5.30;;;3.93;;
18612;SDS011;9436;52.152;21.032;2022-09-12T03:37:59;5.97;;;4.60;;
18612;SDS011;9436;52.152;21.032;2022-09-12T03:40:25;6.53;;;4.13;;
18612;SDS011;9436;52.152;21.032;2022-09-12T03:42:52;5.03;;;3.87;;
18612;SDS011;9436;52.152;21.032;2022-09-12T03:45:19;5.20;;;3.67;;
18612;SDS011;9436;52.152;21.032;2022-09-12T03:47:46;4.87;;;4.20;;
18612;SDS011;9436;52.152;21.032;2022-09-12T03:50:14;4.90;;;4.10;;
18612;SDS011;9436;52.152;21.032;2022-09-12T03:52:41;4.90;;;4.00;;
18612;SDS011;9436;52.152;21.032;2022-09-12T03:55:08;4.57;;;4.03;;
18612;SDS011;9436;52.152;21.032;2022-09-12T03:57:36;6.30;;;4.00;;
18612;SDS011;9436;52.152;21.032;2022-09-12T04:00:03;4.97;;;4.37;;
18612;SDS011;9436;52.152;21.032;2022-09-12T04:02:31;6.27;;;4.30;;
18612;SDS011;9436;52.152;21.032;2022-09-12T04:04:58;5.23;;;4.73;;
18612;SDS011;9436;52.152;21.032;2022-09-12T04:07:26;7.90;;;4.80;;
18612;SDS011;9436;52.152;21.032;2022-09-12T04:09:54;6.07;;;5.17;;
18612;SDS011;9436;52.152;21.032;2022-09-12T04:12:21;8.40;;;5.40;;
18612;SDS011;9436;52.152;21.032;2022-09-12T04:14:48;6.07;;;4.70;;
18612;SDS011;9436;52.152;21.032;2022-09-12T04:17:15;6.20;;;4.60;;
18612;SDS011;9436;52.152;21.032;2022-09-12T04:19:42;6.93;;;5.20;;
18612;SDS011;9436;52.152;21.032;2022-09-12T04:22:09;5.83;;;5.23;;
18612;SDS011;9436;52.152;21.032;2022-09-12T04:24:37;8.63;;;5.70;;
18612;SDS011;9436;52.152;21.032;2022-09-12T04:27:04;6.47;;;5.23;;
18612;SDS011;9436;52.152;21.032;2022-09-12T04:29:30;6.87;;;5.70;;
18612;SDS011;9436;52.152;21.032;2022-09-12T04:31:57;8.63;;;5.30;;
18612;SDS011;9436;52.152;21.032;2022-09-12T04:34:24;6.23;;;5.27;;
18612;SDS011;9436;52.152;21.032;2022-09-12T04:36:51;7.90;;;5.47;;
18612;SDS011;9436;52.152;21.032;2022-09-12T04:39:18;5.40;;;4.90;;
18612;SDS011;9436;52.152;21.032;2022-09-12T04:41:46;6.03;;;5.17;;
18612;SDS011;9436;52.152;21.032;2022-09-12T04:44:13;6.00;;;5.40;;
18612;SDS011;9436;52.152;21.032;2022-09-12T04:46:41;9.47;;;5.70;;
18612;SDS011;9436;52.152;21.032;2022-09-12T04:49:09;5.70;;;5.17;;
18612;SDS011;9436;52.152;21.032;2022-09-12T04:51:37;6.67;;;5.40;;
18612;SDS011;9436;52.152;21.032;2022-09-12T04:54:07;7.43;;;5.43;;
18612;SDS011;9436;52.152;21.032;2022-09-12T04:56:36;7.23;;;5.70;;
18612;SDS011;9436;52.152;21.032;2022-09-12T04:59:06;6.13;;;5.50;;
18612;SDS011;9436;52.152;21.032;2022-09-12T05:01:34;6.37;;;5.03;;
18612;SDS011;9436;52.152;21.032;2022-09-12T05:04:01;5.70;;;5.20;;
18612;SDS011;9436;52.152;21.032;2022-09-12T05:06:28;5.40;;;4.90;;
18612;SDS011;9436;52.152;21.032;2022-09-12T05:08:57;6.30;;;5.40;;
18612;SDS011;9436;52.152;21.032;2022-09-12T05:11:26;6.63;;;5.60;;
18612;SDS011;9436;52.152;21.032;2022-09-12T05:13:54;6.20;;;5.60;;
18612;SDS011;9436;52.152;21.032;2022-09-12T05:16:25;5.67;;;5.13;;
18612;SDS011;9436;52.152;21.032;2022-09-12T05:18:54;8.53;;;5.47;;
18612;SDS011;9436;52.152;21.032;2022-09-12T05:21:22;7.37;;;5.10;;
18612;SDS011;9436;52.152;21.032;2022-09-12T05:23:50;7.80;;;5.63;;
18612;SDS011;9436;52.152;21.032;2022-09-12T05:26:18;5.77;;;5.17;;
18612;SDS011;9436;52.152;21.032;2022-09-12T05:28:46;6.87;;;5.77;;
18612;SDS011;9436;52.152;21.032;2022-09-12T05:31:14;5.97;;;5.40;;
18612;SDS011;9436;52.152;21.032;2022-09-12T05:33:44;7.33;;;5.60;;
18612;SDS011;9436;52.152;21.032;2022-09-12T05:36:13;6.17;;;5.57;;
18612;SDS011;9436;52.152;21.032;2022-09-12T05:38:42;6.47;;;5.77;;
18612;SDS011;9436;52.152;21.032;2022-09-12T05:41:10;7.33;;;5.47;;
18612;SDS011;9436;52.152;21.032;2022-09-12T05:43:38;5.73;;;5.03;;
18612;SDS011;9436;52.152;21.032;2022-09-12T05:46:08;6.40;;;5.73;;
18612;SDS011;9436;52.152;21.032;2022-09-12T05:48:36;7.03;;;5.80;;
18612;SDS011;9436;52.152;21.032;2022-09-12T05:51:07;5.87;;;5.27;;
18612;SDS011;9436;52.152;21.032;2022-09-12T05:53:36;8.10;;;5.70;;
18612;SDS011;9436;52.152;21.032;2022-09-12T05:56:04;8.20;;;5.07;;
18612;SDS011;9436;52.152;21.032;2022-09-12T05:58:33;8.53;;;5.43;;
18612;SDS011;9436;52.152;21.032;2022-09-12T06:01:01;7.27;;;5.40;;
18612;SDS011;9436;52.152;21.032;2022-09-12T06:03:31;8.17;;;5.40;;
18612;SDS011;9436;52.152;21.032;2022-09-12T06:06:00;6.43;;;5.00;;
18612;SDS011;9436;52.152;21.032;2022-09-12T06:08:29;7.53;;;5.20;;
18612;SDS011;9436;52.152;21.032;2022-09-12T06:10:57;8.20;;;4.97;;
18612;SDS011;9436;52.152;21.032;2022-09-12T06:13:25;5.87;;;4.57;;
18612;SDS011;9436;52.152;21.032;2022-09-12T06:15:52;5.70;;;4.87;;
18612;SDS011;9436;52.152;21.032;2022-09-12T06:18:19;4.90;;;4.40;;
18612;SDS011;9436;52.152;21.032;2022-09-12T06:20:46;6.20;;;4.60;;
18612;SDS011;9436;52.152;21.032;2022-09-12T06:23:13;8.93;;;4.67;;
18612;SDS011;9436;52.152;21.032;2022-09-12T06:25:46;5.17;;;4.30;;
18612;SDS011;9436;52.152;21.032;2022-09-12T06:28:14;6.67;;;4.70;;
18612;SDS011;9436;52.152;21.032;2022-09-12T06:30:41;6.20;;;4.80;;
18612;SDS011;9436;52.152;21.032;2022-09-12T06:33:08;5.23;;;4.70;;
18612;SDS011;9436;52.152;21.032;2022-09-12T06:35:35;6.70;;;4.60;;
18612;SDS011;9436;52.152;21.032;2022-09-12T06:38:03;6.03;;;4.77;;
18612;SDS011;9436;52.152;21.032;2022-09-12T06:40:30;6.43;;;4.73;;
18612;SDS011;9436;52.152;21.032;2022-09-12T06:42:59;7.37;;;4.43;;
18612;SDS011;9436;52.152;21.032;2022-09-12T06:45:26;6.47;;;4.27;;
18612;SDS011;9436;52.152;21.032;2022-09-12T06:47:53;5.13;;;4.23;;
18612;SDS011;9436;52.152;21.032;2022-09-12T06:50:21;7.93;;;4.50;;
18612;SDS011;9436;52.152;21.032;2022-09-12T06:52:48;9.40;;;4.40;;
18612;SDS011;9436;52.152;21.032;2022-09-12T06:55:15;6.93;;;4.43;;
18612;SDS011;9436;52.152;21.032;2022-09-12T06:57:43;6.67;;;4.60;;
18612;SDS011;9436;52.152;21.032;2022-09-12T07:00:12;7.20;;;5.00;;
18612;SDS011;9436;52.152;21.032;2022-09-12T07:02:39;7.77;;;5.17;;
18612;SDS011;9436;52.152;21.032;2022-09-12T07:05:06;8.43;;;4.90;;
18612;SDS011;9436;52.152;21.032;2022-09-12T07:07:34;7.97;;;5.00;;
18612;SDS011;9436;52.152;21.032;2022-09-12T07:10:02;8.07;;;5.23;;
18612;SDS011;9436;52.152;21.032;2022-09-12T07:12:30;7.00;;;4.90;;
18612;SDS011;9436;52.152;21.032;2022-09-12T07:14:57;6.13;;;4.83;;
18612;SDS011;9436;52.152;21.032;2022-09-12T07:17:26;5.57;;;4.90;;
18612;SDS011;9436;52.152;21.032;2022-09-12T07:19:53;5.57;;;4.70;;
18612;SDS011;9436;52.152;21.032;2022-09-12T07:22:20;7.10;;;4.87;;
18612;SDS011;9436;52.152;21.032;2022-09-12T07:24:47;5.20;;;4.70;;
18612;SDS011;9436;52.152;21.032;2022-09-12T07:27:14;6.17;;;4.93;;
18612;SDS011;9436;52.152;21.032;2022-09-12T07:29:41;6.40;;;4.60;;
18612;SDS011;9436;52.152;21.032;2022-09-12T07:32:08;6.53;;;5.30;;
18612;SDS011;9436;52.152;21.032;2022-09-12T07:34:37;6.40;;;5.53;;
18612;SDS011;9436;52.152;21.032;2022-09-12T07:37:04;8.57;;;5.00;;
18612;SDS011;9436;52.152;21.032;2022-09-12T07:39:31;6.37;;;5.53;;
18612;SDS011;9436;52.152;21.032;2022-09-12T07:41:58;6.30;;;5.30;;
18612;SDS011;9436;52.152;21.032;2022-09-12T07:44:25;6.13;;;5.03;;
18612;SDS011;9436;52.152;21.032;2022-09-12T07:46:53;6.13;;;5.53;;
18612;SDS011;9436;52.152;21.032;2022-09-12T07:49:20;6.83;;;5.27;;
18612;SDS011;9436;52.152;21.032;2022-09-12T07:51:48;7.37;;;4.83;;
18612;SDS011;9436;52.152;21.032;2022-09-12T07:54:15;7.50;;;5.40;;
18612;SDS011;9436;52.152;21.032;2022-09-12T07:56:42;7.73;;;5.20;;
18612;SDS011;9436;52.152;21.032;2022-09-12T07:59:09;7.80;;;5.23;;
18612;SDS011;9436;52.152;21.032;2022-09-12T08:01:37;6.30;;;4.63;;
18612;SDS011;9436;52.152;21.032;2022-09-12T08:04:05;7.40;;;5.10;;
18612;SDS011;9436;52.152;21.032;2022-09-12T08:06:32;7.30;;;5.10;;
18612;SDS011;9436;52.152;21.032;2022-09-12T08:09:02;8.40;;;4.87;;
18612;SDS011;9436;52.152;21.032;2022-09-12T08:11:30;5.27;;;4.77;;
18612;SDS011;9436;52.152;21.032;2022-09-12T08:13:57;9.00;;;5.50;;
18612;SDS011;9436;52.152;21.032;2022-09-12T08:16:26;5.67;;;5.00;;
18612;SDS011;9436;52.152;21.032;2022-09-12T08:18:55;5.57;;;5.03;;
18612;SDS011;9436;52.152;21.032;2022-09-12T08:21:23;6.63;;;5.40;;
18612;SDS011;9436;52.152;21.032;2022-09-12T08:23:51;5.43;;;4.93;;
18612;SDS011;9436;52.152;21.032;2022-09-12T08:26:20;5.23;;;4.73;;
18612;SDS011;9436;52.152;21.032;2022-09-12T08:28:47;8.10;;;5.47;;
18612;SDS011;9436;52.152;21.032;2022-09-12T08:31:15;7.33;;;4.83;;
18612;SDS011;9436;52.152;21.032;2022-09-12T08:33:43;7.90;;;4.70;;
18612;SDS011;9436;52.152;21.032;2022-09-12T08:36:11;5.40;;;4.90;;
18612;SDS011;9436;52.152;21.032;2022-09-12T08:38:39;5.97;;;4.87;;
18612;SDS011;9436;52.152;21.032;2022-09-12T08:41:08;8.07;;;5.30;;
18612;SDS011;9436;52.152;21.032;2022-09-12T08:46:53;5.90;;;4.77;;
18612;SDS011;9436;52.152;21.032;2022-09-12T08:49:31;9.33;;;5.23;;
18612;SDS011;9436;52.152;21.032;2022-09-12T08:52:02;4.83;;;4.33;;
18612;SDS011;9436;52.152;21.032;2022-09-12T08:54:37;8.63;;;5.10;;
18612;SDS011;9436;52.152;21.032;2022-09-12T08:57:05;7.73;;;5.10;;
18612;SDS011;9436;52.152;21.032;2022-09-12T08:59:35;7.50;;;5.13;;
18612;SDS011;9436;52.152;21.032;2022-09-12T09:02:12;5.97;;;4.63;;
18612;SDS011;9436;52.152;21.032;2022-09-12T09:05:13;4.83;;;4.33;;
18612;SDS011;9436;52.152;21.032;2022-09-12T09:07:55;5.40;;;4.70;;
18612;SDS011;9436;52.152;21.032;2022-09-12T09:10:37;6.50;;;4.60;;
18612;SDS011;9436;52.152;21.032;2022-09-12T09:13:14;5.17;;;4.50;;
18612;SDS011;9436;52.152;21.032;2022-09-12T09:16:12;6.17;;;4.70;;
18612;SDS011;9436;52.152;21.032;2022-09-12T09:18:46;5.13;;;4.23;;
18612;SDS011;9436;52.152;21.032;2022-09-12T09:21:17;7.50;;;4.97;;
18612;SDS011;9436;52.152;21.032;2022-09-12T09:23:49;4.97;;;4.37;;
18612;SDS011;9436;52.152;21.032;2022-09-12T09:26:20;6.00;;;5.07;;
18612;SDS011;9436;52.152;21.032;2022-09-12T09:28:51;5.33;;;4.40;;
18612;SDS011;9436;52.152;21.032;2022-09-12T09:31:23;5.50;;;4.23;;
18612;SDS011;9436;52.152;21.032;2022-09-12T09:33:54;5.83;;;4.90;;
18612;SDS011;9436;52.152;21.032;2022-09-12T09:36:21;6.50;;;4.60;;
18612;SDS011;9436;52.152;21.032;2022-09-12T09:38:57;5.37;;;4.67;;
18612;SDS011;9436;52.152;21.032;2022-09-12T09:44:07;6.00;;;4.87;;
18612;SDS011;9436;52.152;21.032;2022-09-12T09:46:35;5.13;;;4.53;;
18612;SDS011;9436;52.152;21.032;2022-09-12T09:49:03;5.00;;;4.57;;
18612;SDS011;9436;52.152;21.032;2022-09-12T09:51:33;6.23;;;4.70;;
18612;SDS011;9436;52.152;21.032;2022-09-12T09:54:02;5.10;;;4.17;;
18612;SDS011;9436;52.152;21.032;2022-09-12T09:56:35;6.13;;;4.73;;
18612;SDS011;9436;52.152;21.032;2022-09-12T10:01:36;5.47;;;4.30;;
18612;SDS011;9436;52.152;21.032;2022-09-12T10:04:08;4.97;;;4.40;;
18612;SDS011;9436;52.152;21.032;2022-09-12T10:06:44;6.00;;;4.70;;
18612;SDS011;9436;52.152;21.032;2022-09-12T10:11:44;6.20;;;4.60;;
18612;SDS011;9436;52.152;21.032;2022-09-12T10:14:25;5.90;;;4.17;;
18612;SDS011;9436;52.152;21.032;2022-09-12T10:16:56;6.43;;;4.43;;
18612;SDS011;9436;52.152;21.032;2022-09-12T10:19:32;4.80;;;4.30;;
18612;SDS011;9436;52.152;21.032;2022-09-12T10:22:00;5.03;;;4.50;;
18612;SDS011;9436;52.152;21.032;2022-09-12T10:24:29;4.87;;;4.30;;
18612;SDS011;9436;52.152;21.032;2022-09-12T10:27:05;4.90;;;4.40;;
18612;SDS011;9436;52.152;21.032;2022-09-12T10:29:38;5.90;;;4.20;;
18612;SDS011;9436;52.152;21.032;2022-09-12T10:32:10;4.20;;;3.57;;
18612;SDS011;9436;52.152;21.032;2022-09-12T10:34:42;4.50;;;4.10;;
18612;SDS011;9436;52.152;21.032;2022-09-12T10:37:16;4.93;;;4.13;;
18612;SDS011;9436;52.152;21.032;2022-09-12T10:39:49;5.47;;;4.37;;
18612;SDS011;9436;52.152;21.032;2022-09-12T10:45:14;4.70;;;4.17;;
18612;SDS011;9436;52.152;21.032;2022-09-12T10:47:44;5.00;;;4.30;;
18612;SDS011;9436;52.152;21.032;2022-09-12T10:52:46;7.03;;;4.97;;
18612;SDS011;9436;52.152;21.032;2022-09-12T10:55:12;6.40;;;4.50;;
18612;SDS011;9436;52.152;21.032;2022-09-12T10:57:45;5.47;;;4.47;;
18612;SDS011;9436;52.152;21.032;2022-09-12T11:00:26;4.77;;;4.00;;
18612;SDS011;9436;52.152;21.032;2022-09-12T11:02:57;6.07;;;4.23;;
18612;SDS011;9436;52.152;21.032;2022-09-12T11:05:34;6.33;;;4.10;;
18612;SDS011;9436;52.152;21.032;2022-09-12T11:08:13;5.83;;;4.47;;
18612;SDS011;9436;52.152;21.032;2022-09-12T11:10:49;5.33;;;4.33;;
18612;SDS011;9436;52.152;21.032;2022-09-12T11:13:24;5.77;;;3.93;;
18612;SDS011;9436;52.152;21.032;2022-09-12T11:16:02;7.50;;;4.43;;
18612;SDS011;9436;52.152;21.032;2022-09-12T11:18:41;8.60;;;4.93;;
18612;SDS011;9436;52.152;21.032;2022-09-12T11:21:21;6.17;;;3.97;;
18612;SDS011;9436;52.152;21.032;2022-09-12T11:24:03;6.20;;;4.10;;
18612;SDS011;9436;52.152;21.032;2022-09-12T11:26:43;6.03;;;4.73;;
18612;SDS011;9436;52.152;21.032;2022-09-12T11:29:20;5.10;;;4.20;;
18612;SDS011;9436;52.152;21.032;2022-09-12T11:32:09;4.60;;;4.20;;
18612;SDS011;9436;52.152;21.032;2022-09-12T11:34:52;5.07;;;4.50;;
18612;SDS011;9436;52.152;21.032;2022-09-12T11:37:31;5.70;;;4.33;;
18612;SDS011;9436;52.152;21.032;2022-09-12T11:40:15;6.73;;;4.00;;
18612;SDS011;9436;52.152;21.032;2022-09-12T11:42:51;6.13;;;4.13;;
18612;SDS011;9436;52.152;21.032;2022-09-12T11:45:21;5.60;;;4.20;;
18612;SDS011;9436;52.152;21.032;2022-09-12T11:47:54;6.23;;;3.83;;
18612;SDS011;9436;52.152;21.032;2022-09-12T11:50:28;5.27;;;4.10;;
18612;SDS011;9436;52.152;21.032;2022-09-12T11:52:59;6.10;;;3.60;;
18612;SDS011;9436;52.152;21.032;2022-09-12T11:55:43;6.87;;;4.53;;
18612;SDS011;9436;52.152;21.032;2022-09-12T11:58:18;5.37;;;3.90;;
18612;SDS011;9436;52.152;21.032;2022-09-12T12:00:48;8.00;;;4.00;;
18612;SDS011;9436;52.152;21.032;2022-09-12T12:03:19;4.60;;;3.80;;
18612;SDS011;9436;52.152;21.032;2022-09-12T12:05:56;5.80;;;4.10;;
18612;SDS011;9436;52.152;21.032;2022-09-12T12:08:31;4.87;;;4.07;;
18612;SDS011;9436;52.152;21.032;2022-09-12T12:11:04;5.00;;;3.93;;
18612;SDS011;9436;52.152;21.032;2022-09-12T12:13:34;4.17;;;3.77;;
18612;SDS011;9436;52.152;21.032;2022-09-12T12:16:04;5.27;;;4.00;;
18612;SDS011;9436;52.152;21.032;2022-09-12T12:18:33;6.07;;;4.17;;
18612;SDS011;9436;52.152;21.032;2022-09-12T12:23:36;10.70;;;4.20;;
18612;SDS011;9436;52.152;21.032;2022-09-12T12:26:03;7.77;;;3.80;;
18612;SDS011;9436;52.152;21.032;2022-09-12T12:31:03;7.23;;;4.27;;
18612;SDS011;9436;52.152;21.032;2022-09-12T12:36:06;6.23;;;3.87;;
18612;SDS011;9436;52.152;21.032;2022-09-12T12:38:36;5.50;;;3.90;;
18612;SDS011;9436;52.152;21.032;2022-09-12T12:43:49;4.37;;;3.60;;
18612;SDS011;9436;52.152;21.032;2022-09-12T12:46:17;4.10;;;3.70;;
18612;SDS011;9436;52.152;21.032;2022-09-12T12:48:48;6.50;;;3.90;;
18612;SDS011;9436;52.152;21.032;2022-09-12T12:54:24;6.50;;;3.80;;
18612;SDS011;9436;52.152;21.032;2022-09-12T12:59:28;4.47;;;4.00;;
18612;SDS011;9436;52.152;21.032;2022-09-12T13:01:56;4.30;;;3.67;;
18612;SDS011;9436;52.152;21.032;2022-09-12T13:04:26;5.33;;;3.77;;
18612;SDS011;9436;52.152;21.032;2022-09-12T13:06:57;4.73;;;4.20;;
18612;SDS011;9436;52.152;21.032;2022-09-12T13:09:32;6.47;;;4.40;;
18612;SDS011;9436;52.152;21.032;2022-09-12T13:12:04;5.37;;;4.00;;
18612;SDS011;9436;52.152;21.032;2022-09-12T13:14:34;5.07;;;3.50;;
18612;SDS011;9436;52.152;21.032;2022-09-12T13:17:13;4.17;;;3.30;;
18612;SDS011;9436;52.152;21.032;2022-09-12T13:19:45;3.83;;;3.40;;
18612;SDS011;9436;52.152;21.032;2022-09-12T13:22:13;3.83;;;3.43;;
18612;SDS011;9436;52.152;21.032;2022-09-12T13:24:43;3.50;;;3.20;;
18612;SDS011;9436;52.152;21.032;2022-09-12T13:27:15;3.90;;;3.47;;
18612;SDS011;9436;52.152;21.032;2022-09-12T13:29:43;5.20;;;3.50;;
18612;SDS011;9436;52.152;21.032;2022-09-12T13:32:10;3.57;;;3.27;;
18612;SDS011;9436;52.152;21.032;2022-09-12T13:34:41;5.03;;;3.50;;
18612;SDS011;9436;52.152;21.032;2022-09-12T13:37:25;3.50;;;3.20;;
18612;SDS011;9436;52.152;21.032;2022-09-12T13:40:09;4.23;;;3.63;;
18612;SDS011;9436;52.152;21.032;2022-09-12T13:42:47;4.00;;;3.60;;
18612;SDS011;9436;52.152;21.032;2022-09-12T13:45:17;4.50;;;3.40;;
18612;SDS011;9436;52.152;21.032;2022-09-12T13:47:47;3.57;;;3.27;;
18612;SDS011;9436;52.152;21.032;2022-09-12T13:50:18;5.30;;;3.27;;
18612;SDS011;9436;52.152;21.032;2022-09-12T13:52:48;4.38;;;3.70;;
18612;SDS011;9436;52.152;21.032;2022-09-12T13:55:24;3.60;;;3.00;;
18612;SDS011;9436;52.152;21.032;2022-09-12T13:57:56;3.73;;;3.27;;
18612;SDS011;9436;52.152;21.032;2022-09-12T14:00:24;3.70;;;3.40;;
18612;SDS011;9436;52.152;21.032;2022-09-12T14:02:52;3.90;;;3.17;;
18612;SDS011;9436;52.152;21.032;2022-09-12T14:05:39;5.17;;;3.40;;
18612;SDS011;9436;52.152;21.032;2022-09-12T14:08:08;3.50;;;3.20;;
18612;SDS011;9436;52.152;21.032;2022-09-12T14:10:41;4.63;;;3.23;;
18612;SDS011;9436;52.152;21.032;2022-09-12T14:13:10;4.57;;;2.67;;
18612;SDS011;9436;52.152;21.032;2022-09-12T14:15:43;5.00;;;3.13;;
18612;SDS011;9436;52.152;21.032;2022-09-12T14:18:19;5.57;;;3.40;;
18612;SDS011;9436;52.152;21.032;2022-09-12T14:20:48;3.50;;;3.10;;
18612;SDS011;9436;52.152;21.032;2022-09-12T14:23:20;4.07;;;3.10;;
18612;SDS011;9436;52.152;21.032;2022-09-12T14:25:52;3.57;;;3.10;;
18612;SDS011;9436;52.152;21.032;2022-09-12T14:28:20;3.33;;;2.83;;
18612;SDS011;9436;52.152;21.032;2022-09-12T14:30:57;3.83;;;2.97;;
18612;SDS011;9436;52.152;21.032;2022-09-12T14:33:26;3.23;;;3.00;;
18612;SDS011;9436;52.152;21.032;2022-09-12T14:38:33;4.43;;;3.20;;
18612;SDS011;9436;52.152;21.032;2022-09-12T14:41:04;3.93;;;3.10;;
18612;SDS011;9436;52.152;21.032;2022-09-12T14:43:33;3.37;;;3.03;;
18612;SDS011;9436;52.152;21.032;2022-09-12T14:46:04;4.53;;;3.33;;
18612;SDS011;9436;52.152;21.032;2022-09-12T14:48:33;3.53;;;3.20;;
18612;SDS011;9436;52.152;21.032;2022-09-12T14:51:15;4.00;;;3.17;;
18612;SDS011;9436;52.152;21.032;2022-09-12T14:53:47;3.70;;;3.30;;
18612;SDS011;9436;52.152;21.032;2022-09-12T14:56:15;4.00;;;3.60;;
18612;SDS011;9436;52.152;21.032;2022-09-12T14:58:45;4.93;;;3.30;;
18612;SDS011;9436;52.152;21.032;2022-09-12T15:03:48;3.80;;;3.50;;
18612;SDS011;9436;52.152;21.032;2022-09-12T15:06:19;3.90;;;3.50;;
18612;SDS011;9436;52.152;21.032;2022-09-12T15:08:49;4.90;;;3.93;;
18612;SDS011;9436;52.152;21.032;2022-09-12T15:11:18;5.17;;;3.63;;
18612;SDS011;9436;52.152;21.032;2022-09-12T15:13:45;4.10;;;3.70;;
18612;SDS011;9436;52.152;21.032;2022-09-12T15:16:12;7.00;;;3.93;;
18612;SDS011;9436;52.152;21.032;2022-09-12T15:18:38;3.60;;;3.30;;
18612;SDS011;9436;52.152;21.032;2022-09-12T15:21:06;4.27;;;3.83;;
18612;SDS011;9436;52.152;21.032;2022-09-12T15:23:38;4.20;;;3.80;;
18612;SDS011;9436;52.152;21.032;2022-09-12T15:26:08;5.20;;;3.57;;
18612;SDS011;9436;52.152;21.032;2022-09-12T15:28:37;4.30;;;3.90;;
18612;SDS011;9436;52.152;21.032;2022-09-12T15:31:05;4.07;;;3.67;;
18612;SDS011;9436;52.152;21.032;2022-09-12T15:33:35;5.87;;;3.63;;
18612;SDS011;9436;52.152;21.032;2022-09-12T15:36:01;4.77;;;4.00;;
18612;SDS011;9436;52.152;21.032;2022-09-12T15:38:28;4.17;;;3.70;;
18612;SDS011;9436;52.152;21.032;2022-09-12T15:40:54;4.30;;;3.60;;
18612;SDS011;9436;52.152;21.032;2022-09-12T15:43:21;5.10;;;4.00;;
18612;SDS011;9436;52.152;21.032;2022-09-12T15:45:51;4.03;;;3.70;;
18612;SDS011;9436;52.152;21.032;2022-09-12T15:48:18;4.40;;;4.00;;
18612;SDS011;9436;52.152;21.032;2022-09-12T15:50:45;4.20;;;3.80;;